createdAt,value
2019-04-05T00:00:11.031Z,7.83
2019-04-05T00:02:39.602Z,7.70
2019-04-05T00:05:08.083Z,8.28
2019-04-05T00:07:36.899Z,8.38
2019-04-05T00:10:06.302Z,7.62
2019-04-05T00:12:34.798Z,7.85
2019-04-05T00:15:14.519Z,8.90
2019-04-05T00:17:33.830Z,8.80
2019-04-05T00:20:02.302Z,8.28
2019-04-05T00:22:31.004Z,8.85
2019-04-05T00:24:59.446Z,7.65
2019-04-05T00:27:27.887Z,7.47
2019-04-05T00:29:56.714Z,6.95
2019-04-05T00:32:25.156Z,7.87
2019-04-05T00:34:53.778Z,8.83
2019-04-05T00:37:22.228Z,8.65
2019-04-05T00:39:50.635Z,9.03
2019-04-05T00:42:19.378Z,9.05
2019-04-05T00:44:47.816Z,8.53
2019-04-05T00:47:16.571Z,8.08
2019-04-05T00:49:45.014Z,8.53
2019-04-05T00:52:13.427Z,7.90
2019-04-05T00:54:41.884Z,8.73
2019-04-05T00:57:10.295Z,9.08
2019-04-05T00:59:39.157Z,8.65
2019-04-05T01:02:07.922Z,11.33
2019-04-05T01:04:36.394Z,10.72
2019-04-05T01:07:05.291Z,10.98
2019-04-05T01:09:33.742Z,10.03
2019-04-05T01:12:02.149Z,9.60
2019-04-05T01:14:30.601Z,11.75
2019-04-05T01:16:59.347Z,10.35
2019-04-05T01:19:30.596Z,11.22
2019-04-05T01:21:58.999Z,10.93
2019-04-05T01:24:27.453Z,12.40
2019-04-05T01:26:55.871Z,11.60
2019-04-05T01:29:24.799Z,11.05
2019-04-05T01:31:53.205Z,13.28
2019-04-05T01:34:21.939Z,11.00
2019-04-05T01:36:50.388Z,10.63
2019-04-05T01:39:18.850Z,11.93
2019-04-05T01:41:47.367Z,11.68
2019-04-05T01:44:15.778Z,11.43
2019-04-05T01:46:44.603Z,12.23
2019-04-05T01:49:13.059Z,11.60
2019-04-05T01:51:41.484Z,11.20
2019-04-05T01:54:10.319Z,10.85
2019-04-05T01:56:39.823Z,11.63
2019-04-05T01:59:08.240Z,12.07
2019-04-05T02:01:36.690Z,11.10
2019-04-05T02:04:06.113Z,11.00
2019-04-05T02:06:35.079Z,11.90
2019-04-05T02:09:06.271Z,11.57
2019-04-05T02:11:34.682Z,11.57
2019-04-05T02:14:03.408Z,10.45
2019-04-05T02:16:31.847Z,10.58
2019-04-05T02:19:00.259Z,10.65
2019-04-05T02:21:28.695Z,11.83
2019-04-05T02:23:57.135Z,11.28
2019-04-05T02:26:25.545Z,11.03
2019-04-05T02:28:54.327Z,11.00
2019-04-05T02:31:22.875Z,11.20
2019-04-05T02:33:51.279Z,10.82
2019-04-05T02:36:19.800Z,10.43
2019-04-05T02:38:48.234Z,10.85
2019-04-05T02:41:16.659Z,11.33
2019-04-05T02:43:45.113Z,10.93
2019-04-05T02:46:23.613Z,11.48
2019-04-05T02:48:43.691Z,10.50
2019-04-05T02:51:13.908Z,11.45
2019-04-05T02:53:42.311Z,10.80
2019-04-05T02:56:13.340Z,11.08
2019-04-05T02:58:41.771Z,10.75
2019-04-05T03:01:15.448Z,11.83
2019-04-05T03:03:43.847Z,11.35
2019-04-05T03:06:16.200Z,12.82
2019-04-05T03:08:44.603Z,13.08
2019-04-05T03:11:13.769Z,11.25
2019-04-05T03:13:51.161Z,13.20
2019-04-05T03:16:38.601Z,11.30
2019-04-05T03:18:55.652Z,12.70
2019-04-05T03:21:24.264Z,11.53
2019-04-05T03:23:52.734Z,11.73
2019-04-05T03:26:21.746Z,11.68
2019-04-05T03:28:51.811Z,11.63
2019-04-05T03:31:24.615Z,11.83
2019-04-05T03:33:50.801Z,12.35
2019-04-05T03:36:19.214Z,12.20
2019-04-05T03:38:48.024Z,13.08
2019-04-05T03:41:16.813Z,11.93
2019-04-05T03:43:45.641Z,13.62
2019-04-05T03:46:14.063Z,14.07
2019-04-05T03:48:42.561Z,13.18
2019-04-05T03:51:12.104Z,12.60
2019-04-05T03:53:40.749Z,12.50
2019-04-05T03:56:13.235Z,12.03
2019-04-05T03:58:41.683Z,12.75
2019-04-05T04:01:10.466Z,12.47
2019-04-05T04:03:39.176Z,12.23
2019-04-05T04:06:07.617Z,12.73
2019-04-05T04:08:36.919Z,12.78
2019-04-05T04:11:05.326Z,12.75
2019-04-05T04:13:34.231Z,12.23
2019-04-05T04:16:09.430Z,12.55
2019-04-05T04:18:37.870Z,13.85
2019-04-05T04:21:26.049Z,13.28
2019-04-05T04:23:54.532Z,12.78
2019-04-05T04:26:22.909Z,13.25
2019-04-05T04:28:51.718Z,13.22
2019-04-05T04:31:20.140Z,14.10
2019-04-05T04:33:48.583Z,14.45
2019-04-05T04:36:17.000Z,14.10
2019-04-05T04:38:45.427Z,13.18
2019-04-05T04:41:13.942Z,13.80
2019-04-05T04:43:44.741Z,13.20
2019-04-05T04:46:19.476Z,13.88
2019-04-05T04:48:48.768Z,14.15
2019-04-05T04:51:17.936Z,13.03
2019-04-05T04:53:46.346Z,14.10
2019-04-05T04:56:15.185Z,12.45
2019-04-05T04:58:46.230Z,13.15
2019-04-05T05:01:13.689Z,13.62
2019-04-05T05:03:43.077Z,12.95
2019-04-05T05:06:15.237Z,13.80
2019-04-05T05:08:43.636Z,13.65
2019-04-05T05:11:14.876Z,12.93
2019-04-05T05:13:42.578Z,13.80
2019-04-05T05:16:17.519Z,12.78
2019-04-05T05:18:46.015Z,12.95
2019-04-05T05:21:14.461Z,12.65
2019-04-05T05:23:43.251Z,11.90
2019-04-05T05:26:11.694Z,12.05
2019-04-05T05:28:40.108Z,13.70
2019-04-05T05:31:15.447Z,15.15
2019-04-05T05:33:45.878Z,14.38
2019-04-05T05:36:16.282Z,15.40
2019-04-05T05:38:44.691Z,14.15
2019-04-05T05:41:14.239Z,15.05
2019-04-05T05:43:42.930Z,15.53
2019-04-05T05:46:11.673Z,14.70
2019-04-05T05:48:40.084Z,15.20
2019-04-05T05:51:13.110Z,14.55
2019-04-05T05:53:41.924Z,15.40
2019-04-05T05:56:11.965Z,15.35
2019-04-05T05:58:40.391Z,15.20
2019-04-05T06:01:10.379Z,14.20
2019-04-05T06:03:39.798Z,15.35
2019-04-05T06:06:11.344Z,15.35
2019-04-05T06:08:40.759Z,14.10
2019-04-05T06:11:10.555Z,15.78
2019-04-05T06:13:38.970Z,14.47
2019-04-05T06:16:10.033Z,15.20
2019-04-05T06:18:38.451Z,15.38
2019-04-05T06:21:13.439Z,15.83
2019-04-05T06:23:41.850Z,16.37
2019-04-05T06:26:10.313Z,16.75
2019-04-05T06:28:39.050Z,15.28
2019-04-05T06:31:12.423Z,15.80
2019-04-05T06:33:41.235Z,16.32
2019-04-05T06:36:10.011Z,14.25
2019-04-05T06:38:38.808Z,14.28
2019-04-05T06:41:11.863Z,15.60
2019-04-05T06:43:40.304Z,14.05
2019-04-05T06:46:11.879Z,16.27
2019-04-05T06:48:40.355Z,15.83
2019-04-05T06:51:09.035Z,16.57
2019-04-05T06:53:37.579Z,15.43
2019-04-05T06:56:05.990Z,15.00
2019-04-05T06:58:35.389Z,16.05
2019-04-05T07:01:04.159Z,16.42
2019-04-05T07:03:32.606Z,16.93
2019-04-05T07:06:01.405Z,14.05
2019-04-05T07:08:30.346Z,15.83
2019-04-05T07:10:59.132Z,16.55
2019-04-05T07:13:27.739Z,15.80
2019-04-05T07:15:56.170Z,15.98
2019-04-05T07:18:34.051Z,16.32
2019-04-05T07:20:57.679Z,16.23
2019-04-05T07:23:25.224Z,16.62
2019-04-05T07:25:53.963Z,16.95
2019-04-05T07:28:24.961Z,16.15
2019-04-05T07:30:53.069Z,16.17
2019-04-05T07:33:21.836Z,15.53
2019-04-05T07:35:50.323Z,15.13
2019-04-05T07:38:18.726Z,16.45
2019-04-05T07:40:47.511Z,14.63
2019-04-05T07:43:16.331Z,15.93
2019-04-05T07:45:46.162Z,15.95
2019-04-05T07:48:15.130Z,16.15
2019-04-05T07:50:43.578Z,17.25
2019-04-05T07:53:12.011Z,26.52
2019-04-05T07:55:40.461Z,24.20
2019-04-05T07:58:08.863Z,18.65
2019-04-05T08:00:51.595Z,19.55
2019-04-05T08:03:20.307Z,17.10
2019-04-05T08:05:48.961Z,17.82
2019-04-05T08:08:23.901Z,15.85
2019-04-05T08:10:52.350Z,16.42
2019-04-05T08:13:20.763Z,16.90
2019-04-05T08:15:49.622Z,16.82
2019-04-05T08:18:18.027Z,15.15
2019-04-05T08:20:46.771Z,15.15
2019-04-05T08:23:15.184Z,14.25
2019-04-05T08:25:43.652Z,13.68
2019-04-05T08:28:12.134Z,13.88
2019-04-05T08:30:40.924Z,13.20
2019-04-05T08:33:15.705Z,13.98
2019-04-05T08:35:44.126Z,15.53
2019-04-05T08:38:14.343Z,12.05
2019-04-05T08:40:43.042Z,13.03
2019-04-05T08:43:11.488Z,15.28
2019-04-05T08:45:40.177Z,13.53
2019-04-05T08:48:13.329Z,12.70
2019-04-05T08:50:42.006Z,11.35
2019-04-05T08:53:15.215Z,11.80
2019-04-05T08:55:43.919Z,10.65
2019-04-05T08:58:12.458Z,17.65
2019-04-05T09:00:40.872Z,11.35
2019-04-05T09:03:11.844Z,11.97
2019-04-05T09:05:39.408Z,10.30
2019-04-05T09:08:07.820Z,10.00
2019-04-05T09:10:36.607Z,12.53
2019-04-05T09:13:10.103Z,9.35
2019-04-05T09:15:38.608Z,9.28
2019-04-05T09:18:12.266Z,8.73
2019-04-05T09:20:40.679Z,8.30
2019-04-05T09:23:09.147Z,9.33
2019-04-05T09:25:37.568Z,8.48
2019-04-05T09:28:12.410Z,8.50
2019-04-05T09:30:40.883Z,8.30
2019-04-05T09:33:15.526Z,8.20
2019-04-05T09:35:43.936Z,9.60
2019-04-05T09:38:12.672Z,9.80
2019-04-05T09:40:41.540Z,8.40
2019-04-05T09:43:10.327Z,8.75
2019-04-05T09:45:39.108Z,8.60
2019-04-05T09:48:07.522Z,10.35
2019-04-05T09:50:36.338Z,8.45
2019-04-05T09:53:11.520Z,10.05
2019-04-05T09:55:39.931Z,9.55
2019-04-05T09:58:10.305Z,9.73
2019-04-05T10:00:39.131Z,9.75
2019-04-05T10:03:09.412Z,9.50
2019-04-05T10:05:37.851Z,8.95
2019-04-05T10:08:06.618Z,9.73
2019-04-05T10:10:35.146Z,13.05
2019-04-05T10:13:10.262Z,13.60
2019-04-05T10:15:38.708Z,16.93
2019-04-05T10:18:11.411Z,12.73
2019-04-05T10:20:40.139Z,11.95
2019-04-05T10:23:15.068Z,11.68
2019-04-05T10:25:44.126Z,10.38
2019-04-05T10:28:12.667Z,11.00
2019-04-05T10:30:41.082Z,12.40
2019-04-05T10:33:15.851Z,10.20
2019-04-05T10:35:44.364Z,11.43
2019-04-05T10:38:13.138Z,10.88
2019-04-05T10:40:41.556Z,10.53
2019-04-05T10:43:11.963Z,10.68
2019-04-05T10:45:40.468Z,10.85
2019-04-05T10:48:11.442Z,9.95
2019-04-05T10:50:40.232Z,9.48
2019-04-05T10:53:08.640Z,9.78
2019-04-05T10:55:37.155Z,10.20
2019-04-05T10:58:05.656Z,10.10
2019-04-05T11:00:34.106Z,10.18
2019-04-05T11:03:02.697Z,10.43
2019-04-05T11:05:31.134Z,10.85
2019-04-05T11:07:59.840Z,10.43
2019-04-05T11:10:28.653Z,11.10
2019-04-05T11:12:57.439Z,11.05
2019-04-05T11:15:26.239Z,11.25
2019-04-05T11:17:54.971Z,10.80
2019-04-05T11:20:23.747Z,9.20
2019-04-05T11:22:52.191Z,10.72
2019-04-05T11:25:21.162Z,11.25
2019-04-05T11:27:49.707Z,11.18
2019-04-05T11:30:21.378Z,9.38
2019-04-05T11:32:49.847Z,9.83
2019-04-05T11:35:18.422Z,9.23
2019-04-05T11:37:49.938Z,10.40
2019-04-05T11:40:20.293Z,9.05
2019-04-05T11:42:48.730Z,8.73
2019-04-05T11:45:17.139Z,9.38
2019-04-05T11:47:45.547Z,9.95
2019-04-05T11:50:14.052Z,10.90
2019-04-05T11:52:42.593Z,10.03
2019-04-05T11:55:11.080Z,9.70
2019-04-05T11:57:41.473Z,11.28
2019-04-05T12:00:12.934Z,10.58
2019-04-05T12:02:52.110Z,10.32
2019-04-05T12:05:22.953Z,10.65
2019-04-05T12:07:51.386Z,10.32
2019-04-05T12:10:19.829Z,10.78
2019-04-05T12:12:48.238Z,10.78
2019-04-05T12:15:16.696Z,10.63
2019-04-05T12:17:45.162Z,11.73
2019-04-05T12:20:13.797Z,11.95
2019-04-05T12:22:42.200Z,12.53
2019-04-05T12:25:13.867Z,11.55
2019-04-05T12:27:42.279Z,10.32
2019-04-05T12:30:13.237Z,10.48
2019-04-05T12:32:41.978Z,9.50
2019-04-05T12:35:13.940Z,10.28
2019-04-05T12:37:50.178Z,10.03
2019-04-05T12:40:14.926Z,9.55
2019-04-05T12:42:43.715Z,10.60
2019-04-05T12:45:14.671Z,10.70
2019-04-05T12:47:45.347Z,8.95
2019-04-05T12:50:14.638Z,11.25
2019-04-05T12:52:43.470Z,11.73
2019-04-05T12:55:12.109Z,11.53
2019-04-05T12:57:40.703Z,10.90
2019-04-05T13:00:13.325Z,11.10
2019-04-05T13:02:41.936Z,10.98
2019-04-05T13:05:10.335Z,11.12
2019-04-05T13:07:38.796Z,13.08
2019-04-05T13:10:07.591Z,13.00
2019-04-05T13:12:36.010Z,12.18
2019-04-05T13:15:13.742Z,12.68
2019-04-05T13:17:36.252Z,13.55
2019-04-05T13:20:06.209Z,12.98
2019-04-05T13:22:34.660Z,12.70
2019-04-05T13:25:05.949Z,11.88
2019-04-05T13:27:33.724Z,12.40
2019-04-05T13:30:02.543Z,11.68
2019-04-05T13:32:31.374Z,11.60
2019-04-05T13:34:59.782Z,11.93
2019-04-05T13:37:30.634Z,11.85
2019-04-05T13:40:00.045Z,12.40
2019-04-05T13:42:31.112Z,11.18
2019-04-05T13:44:59.056Z,10.38
2019-04-05T13:47:27.843Z,11.15
2019-04-05T13:49:56.351Z,11.22
2019-04-05T13:52:24.773Z,10.75
2019-04-05T13:54:53.502Z,11.45
2019-04-05T13:57:21.920Z,10.65
2019-04-05T13:59:50.374Z,10.63
2019-04-05T14:02:21.138Z,10.30
2019-04-05T14:04:48.971Z,10.65
2019-04-05T14:07:17.666Z,10.90
2019-04-05T14:09:46.452Z,12.37
2019-04-05T14:12:14.907Z,12.10
2019-04-05T14:14:43.355Z,12.10
2019-04-05T14:17:13.665Z,13.18
2019-04-05T14:19:41.942Z,12.93
2019-04-05T14:22:14.792Z,13.60
2019-04-05T14:27:11.681Z,13.15
2019-04-05T14:29:40.111Z,14.73
2019-04-05T14:32:20.354Z,13.20
2019-04-05T14:34:42.279Z,13.13
2019-04-05T14:37:10.724Z,13.35
2019-04-05T14:39:39.130Z,13.20
2019-04-05T14:42:09.919Z,13.68
2019-04-05T14:44:37.768Z,14.33
2019-04-05T14:47:06.314Z,13.55
2019-04-05T14:49:34.706Z,13.75
2019-04-05T14:52:03.518Z,12.75
2019-04-05T14:54:32.279Z,12.65
2019-04-05T14:57:05.473Z,12.82
2019-04-05T14:59:32.767Z,13.30
2019-04-05T15:02:00.980Z,12.80
2019-04-05T15:04:29.469Z,11.18
2019-04-05T15:07:01.130Z,12.10
2019-04-05T15:09:28.776Z,12.55
2019-04-05T15:11:58.663Z,11.22
2019-04-05T15:14:27.638Z,10.80
2019-04-05T15:16:56.074Z,10.05
2019-04-05T15:19:24.843Z,11.38
2019-04-05T15:22:04.819Z,12.23
2019-04-05T15:24:23.366Z,11.50
2019-04-05T15:26:52.224Z,10.85
2019-04-05T15:29:20.947Z,11.05
2019-04-05T15:31:49.391Z,11.68
2019-04-05T15:34:18.150Z,11.63
2019-04-05T15:36:51.652Z,11.30
2019-04-05T15:39:20.056Z,12.98
2019-04-05T15:41:48.858Z,11.05
2019-04-05T15:44:18.215Z,11.95
2019-04-05T15:46:46.944Z,11.28
2019-04-05T15:49:15.407Z,11.93
2019-04-05T15:51:44.167Z,11.97
2019-04-05T15:54:12.666Z,9.93
2019-04-05T15:56:41.100Z,11.40
2019-04-05T15:59:09.553Z,11.38
2019-04-05T16:01:37.962Z,11.10
2019-04-05T16:04:07.628Z,10.53
2019-04-05T16:06:38.883Z,10.35
2019-04-05T16:09:08.143Z,11.43
2019-04-05T16:11:36.889Z,10.90
2019-04-05T16:14:05.644Z,10.82
2019-04-05T16:16:34.410Z,11.53
2019-04-05T16:19:03.141Z,10.95
2019-04-05T16:21:31.607Z,11.60
2019-04-05T16:24:00.025Z,11.83
2019-04-05T16:26:28.432Z,11.73
2019-04-05T16:28:56.896Z,11.05
2019-04-05T16:31:25.335Z,12.28
2019-04-05T16:33:53.787Z,11.68
2019-04-05T16:36:23.524Z,10.88
2019-04-05T16:38:52.015Z,11.53
2019-04-05T16:41:20.527Z,11.95
2019-04-05T16:43:49.396Z,11.33
2019-04-05T16:46:17.850Z,13.22
2019-04-05T16:48:46.830Z,11.08
2019-04-05T16:51:15.602Z,11.10
2019-04-05T16:53:51.828Z,12.03
2019-04-05T16:56:20.279Z,11.00
2019-04-05T16:58:48.759Z,10.93
2019-04-05T17:01:26.910Z,10.88
2019-04-05T17:03:47.262Z,11.35
2019-04-05T17:06:15.997Z,11.68
2019-04-05T17:08:45.579Z,11.57
2019-04-05T17:11:14.563Z,11.50
2019-04-05T17:13:43.376Z,11.65
2019-04-05T17:16:11.899Z,12.18
2019-04-05T17:18:40.553Z,11.80
2019-04-05T17:21:09.361Z,11.05
2019-04-05T17:23:37.834Z,12.13
2019-04-05T17:26:06.428Z,12.10
2019-04-05T17:28:34.911Z,10.95
2019-04-05T17:31:03.395Z,12.20
2019-04-05T17:33:31.844Z,12.70
2019-04-05T17:36:00.354Z,12.33
2019-04-05T17:38:29.120Z,12.47
2019-04-05T17:40:57.567Z,12.98
2019-04-05T17:43:25.979Z,12.45
2019-04-05T17:45:54.714Z,13.25
2019-04-05T17:48:23.162Z,12.78
2019-04-05T17:50:51.606Z,12.37
2019-04-05T17:53:20.120Z,13.30
2019-04-05T17:55:48.656Z,14.18
2019-04-05T17:58:17.415Z,13.32
2019-04-05T18:00:46.186Z,13.60
2019-04-05T18:03:14.665Z,14.47
2019-04-05T18:05:43.166Z,13.80
2019-04-05T18:08:11.733Z,13.85
2019-04-05T18:10:40.503Z,16.23
2019-04-05T18:13:09.311Z,16.23
2019-04-05T18:15:42.281Z,16.32
2019-04-05T18:18:08.310Z,15.85
2019-04-05T18:20:36.956Z,16.45
2019-04-05T18:23:05.385Z,16.62
2019-04-05T18:25:33.788Z,15.53
2019-04-05T18:28:02.595Z,16.35
2019-04-05T18:30:32.311Z,15.53
2019-04-05T18:33:00.757Z,17.00
2019-04-05T18:35:29.519Z,16.87
2019-04-05T18:37:58.219Z,17.77
2019-04-05T18:40:39.222Z,18.52
2019-04-05T18:42:56.715Z,19.37
2019-04-05T18:45:25.122Z,17.80
2019-04-05T18:47:53.576Z,19.00
2019-04-05T18:50:21.991Z,18.50
2019-04-05T18:52:50.538Z,26.27
2019-04-05T18:55:19.626Z,21.73
2019-04-05T18:57:48.140Z,21.45
2019-04-05T19:00:16.625Z,26.95
2019-04-05T19:02:45.718Z,26.33
2019-04-05T19:05:14.173Z,26.07
2019-04-05T19:07:42.580Z,21.50
2019-04-05T19:10:11.475Z,21.55
2019-04-05T19:12:39.911Z,28.30
2019-04-05T19:15:08.945Z,26.05
2019-04-05T19:17:37.738Z,26.25
2019-04-05T19:20:06.353Z,25.10
2019-04-05T19:22:34.727Z,24.40
2019-04-05T19:25:05.011Z,24.85
2019-04-05T19:27:33.900Z,22.35
2019-04-05T19:50:06.801Z,17.42
2019-04-05T19:52:35.607Z,19.40
2019-04-05T19:55:04.999Z,18.85
2019-04-05T19:57:34.092Z,19.42
2019-04-05T20:00:02.936Z,20.62
2019-04-05T20:02:31.352Z,20.60
2019-04-05T20:05:00.160Z,19.67
2019-04-05T20:07:28.598Z,19.02
2019-04-05T20:09:57.372Z,18.42
2019-04-05T20:12:25.817Z,19.17
2019-04-05T20:14:54.312Z,17.92
2019-04-05T20:17:23.046Z,18.05
2019-04-05T20:19:51.786Z,18.90
2019-04-05T20:22:20.232Z,17.52
2019-04-05T20:24:49.067Z,17.62
2019-04-05T20:27:17.780Z,17.92
2019-04-05T20:29:46.216Z,17.62
2019-04-05T20:32:14.631Z,15.98
2019-04-05T20:34:43.384Z,17.07
2019-04-05T20:37:12.124Z,18.50
2019-04-05T20:39:40.930Z,17.30
2019-04-05T20:42:09.369Z,17.17
2019-04-05T20:44:38.146Z,17.05
2019-04-05T20:47:06.607Z,16.42
2019-04-05T20:49:35.302Z,16.32
2019-04-05T20:52:03.785Z,17.75
2019-04-05T20:54:32.614Z,17.55
2019-04-05T20:57:01.261Z,16.87
2019-04-05T20:59:29.703Z,16.25
2019-04-05T21:01:58.689Z,17.85
2019-04-05T21:04:27.139Z,16.02
2019-04-05T21:06:55.852Z,16.77
2019-04-05T21:09:24.694Z,15.50
2019-04-05T21:11:53.471Z,16.82
2019-04-05T21:14:22.325Z,15.85
2019-04-05T21:16:50.853Z,17.10
2019-04-05T21:19:19.255Z,17.48
2019-04-05T21:21:47.663Z,17.12
2019-04-05T21:24:16.120Z,16.97
2019-04-05T21:26:44.839Z,15.75
2019-04-05T21:29:13.803Z,17.23
2019-04-05T21:31:42.278Z,17.15
2019-04-05T21:34:10.937Z,17.62
2019-04-05T21:36:39.772Z,17.37
2019-04-05T21:39:08.249Z,18.00
2019-04-05T21:41:36.702Z,17.55
2019-04-05T21:44:05.125Z,18.02
2019-04-05T21:46:33.575Z,19.20
2019-04-05T21:49:02.299Z,18.48
2019-04-05T21:51:30.703Z,20.52
2019-04-05T21:53:59.419Z,18.90
2019-04-05T21:56:28.196Z,20.15
2019-04-05T21:58:56.782Z,19.00
2019-04-05T22:01:26.910Z,18.45
2019-04-05T22:03:56.094Z,20.52
2019-04-05T22:06:24.507Z,19.80
2019-04-05T22:08:52.960Z,22.22
2019-04-05T22:11:21.771Z,19.70
2019-04-05T22:13:50.232Z,20.20
2019-04-05T22:16:18.743Z,20.72
2019-04-05T22:18:47.602Z,21.70
2019-04-05T22:21:16.015Z,21.20
2019-04-05T22:23:45.819Z,21.45
2019-04-05T22:26:14.249Z,21.45
2019-04-05T22:28:42.687Z,22.52
2019-04-05T22:31:11.406Z,20.88
2019-04-05T22:33:40.133Z,20.65
2019-04-05T22:36:09.108Z,21.85
2019-04-05T22:38:37.864Z,21.68
2019-04-05T22:41:06.323Z,20.88
2019-04-05T22:43:34.782Z,20.52
2019-04-05T22:46:03.591Z,22.35
2019-04-05T22:48:32.408Z,20.43
2019-04-05T22:51:01.053Z,21.00
2019-04-05T22:53:29.857Z,22.05
2019-04-05T22:55:58.639Z,21.95
2019-04-05T22:58:27.408Z,22.90
2019-04-05T23:00:55.847Z,21.68
2019-04-05T23:03:24.259Z,23.83
2019-04-05T23:05:52.712Z,22.55
2019-04-05T23:08:21.540Z,22.95
2019-04-05T23:10:50.394Z,22.37
2019-04-05T23:13:18.806Z,23.50
2019-04-05T23:15:47.245Z,23.83
2019-04-05T23:18:15.687Z,22.42
2019-04-05T23:20:44.106Z,23.55
2019-04-05T23:23:12.950Z,24.60
2019-04-05T23:25:41.697Z,23.25
2019-04-05T23:28:10.151Z,23.40
2019-04-05T23:30:39.240Z,24.45
2019-04-05T23:33:07.656Z,21.97
2019-04-05T23:35:36.099Z,23.27
2019-04-05T23:38:04.812Z,24.02
2019-04-05T23:40:33.570Z,24.35
2019-04-05T23:43:06.867Z,22.85
2019-04-05T23:45:35.241Z,23.55
2019-04-05T23:48:04.588Z,22.60
2019-04-05T23:50:33.035Z,23.57
2019-04-05T23:53:01.458Z,23.77
2019-04-05T23:55:33.442Z,23.77
2019-04-05T23:58:02.235Z,23.35
